createdAt,value
2022-12-16T00:01:23.018Z,46.67
2022-12-16T00:03:49.563Z,48.25
2022-12-16T00:06:17.280Z,48.00
2022-12-16T00:08:41.813Z,42.65
2022-12-16T00:11:06.942Z,39.17
2022-12-16T00:13:34.259Z,44.35
2022-12-16T00:15:59.873Z,39.92
2022-12-16T00:18:25.387Z,40.88
2022-12-16T00:20:51.135Z,40.40
2022-12-16T00:23:16.614Z,43.90
2022-12-16T00:25:42.701Z,40.00
2022-12-16T00:28:07.197Z,38.65
2022-12-16T00:30:35.163Z,39.60
2022-12-16T00:32:59.704Z,36.55
2022-12-16T00:35:24.023Z,37.67
2022-12-16T00:37:48.912Z,38.17
2022-12-16T00:40:13.781Z,33.13
2022-12-16T00:42:38.280Z,36.17
2022-12-16T00:45:02.894Z,33.45
2022-12-16T00:47:28.876Z,35.65
2022-12-16T00:49:53.353Z,34.17
2022-12-16T00:52:19.334Z,34.65
2022-12-16T00:54:43.679Z,35.25
2022-12-16T00:57:08.275Z,34.85
2022-12-16T00:59:32.802Z,34.22
2022-12-16T01:01:57.276Z,39.90
2022-12-16T01:04:26.732Z,37.30
2022-12-16T01:06:51.164Z,36.60
2022-12-16T01:09:16.578Z,38.17
2022-12-16T01:11:41.026Z,35.70
2022-12-16T01:14:05.339Z,35.72
2022-12-16T01:16:30.056Z,38.42
2022-12-16T01:18:56.434Z,36.90
2022-12-16T01:21:22.376Z,36.58
2022-12-16T01:23:48.491Z,35.85
2022-12-16T01:26:18.154Z,36.20
2022-12-16T01:28:42.478Z,35.30
2022-12-16T01:31:07.993Z,35.42
2022-12-16T01:33:34.568Z,33.40
2022-12-16T01:36:03.209Z,35.88
2022-12-16T01:38:29.546Z,32.63
2022-12-16T01:40:55.150Z,33.53
2022-12-16T01:43:21.565Z,31.85
2022-12-16T01:45:45.988Z,35.28
2022-12-16T01:48:21.658Z,34.42
2022-12-16T01:50:46.668Z,35.78
2022-12-16T01:53:11.327Z,33.63
2022-12-16T01:55:42.799Z,31.52
2022-12-16T01:58:10.902Z,32.30
2022-12-16T02:00:36.246Z,29.83
2022-12-16T02:03:02.025Z,29.35
2022-12-16T02:05:26.771Z,30.15
2022-12-16T02:08:01.213Z,28.30
2022-12-16T02:10:34.406Z,29.38
2022-12-16T02:13:07.135Z,26.85
2022-12-16T02:15:40.854Z,26.95
2022-12-16T02:18:15.629Z,27.48
2022-12-16T02:21:16.910Z,25.63
2022-12-16T02:24:17.953Z,26.73
2022-12-16T02:27:06.085Z,26.00
2022-12-16T02:30:05.438Z,23.20
2022-12-16T02:32:40.653Z,23.27
2022-12-16T02:35:11.322Z,23.48
2022-12-16T02:37:43.475Z,22.02
2022-12-16T02:40:16.693Z,25.48
2022-12-16T02:42:46.561Z,25.15
2022-12-16T02:45:17.231Z,20.35
2022-12-16T02:47:43.072Z,21.73
2022-12-16T02:50:16.080Z,23.00
2022-12-16T02:52:40.567Z,20.42
2022-12-16T02:55:09.302Z,22.38
2022-12-16T02:58:06.303Z,26.75
2022-12-16T03:00:37.325Z,24.27
2022-12-16T03:03:08.076Z,24.00
2022-12-16T03:05:36.399Z,23.95
2022-12-16T03:08:05.131Z,24.10
2022-12-16T03:10:33.824Z,25.58
2022-12-16T03:13:03.507Z,25.60
2022-12-16T03:15:32.244Z,25.65
2022-12-16T03:17:58.714Z,24.20
2022-12-16T03:20:29.179Z,25.90
2022-12-16T03:22:55.931Z,26.27
2022-12-16T03:25:22.453Z,26.17
2022-12-16T03:27:57.089Z,24.20
2022-12-16T03:30:26.925Z,24.17
2022-12-16T03:32:58.522Z,23.95
2022-12-16T03:35:28.608Z,22.27
2022-12-16T03:37:57.666Z,23.27
2022-12-16T03:40:23.253Z,25.30
2022-12-16T03:42:48.465Z,24.45
2022-12-16T03:45:18.133Z,26.50
2022-12-16T03:47:42.687Z,24.77
2022-12-16T03:50:09.241Z,25.05
2022-12-16T03:52:35.220Z,24.95
2022-12-16T03:54:59.913Z,26.92
2022-12-16T03:57:24.275Z,28.48
2022-12-16T03:59:48.609Z,32.58
2022-12-16T04:02:13.112Z,29.42
2022-12-16T04:04:37.667Z,28.35
2022-12-16T04:07:19.136Z,24.95
2022-12-16T04:09:45.103Z,27.63
2022-12-16T04:12:27.376Z,26.38
2022-12-16T04:15:09.346Z,26.52
2022-12-16T04:17:51.245Z,27.33
2022-12-16T04:20:34.998Z,23.80
2022-12-16T04:23:17.250Z,26.85
2022-12-16T04:25:43.196Z,25.20
2022-12-16T04:28:07.643Z,25.05
2022-12-16T04:30:35.266Z,22.60
2022-12-16T04:33:20.079Z,23.38
2022-12-16T04:36:02.145Z,27.17
2022-12-16T04:38:44.255Z,24.40
2022-12-16T04:41:27.239Z,22.42
2022-12-16T04:44:09.085Z,25.17
2022-12-16T04:46:50.958Z,28.83
2022-12-16T04:49:32.955Z,26.77
2022-12-16T04:52:14.894Z,25.77
2022-12-16T04:54:56.952Z,27.00
2022-12-16T04:57:39.834Z,26.60
2022-12-16T05:00:22.377Z,26.35
2022-12-16T05:03:18.732Z,28.75
2022-12-16T05:06:00.575Z,28.90
2022-12-16T05:08:42.442Z,31.02
2022-12-16T05:11:24.551Z,27.27
2022-12-16T05:14:07.992Z,24.65
2022-12-16T05:16:50.004Z,24.60
2022-12-16T05:19:32.091Z,23.92
2022-12-16T05:22:13.797Z,24.58
2022-12-16T05:24:55.634Z,21.13
2022-12-16T05:27:37.401Z,26.52
2022-12-16T05:30:20.906Z,22.23
2022-12-16T05:33:02.707Z,24.08
2022-12-16T05:35:44.609Z,23.85
2022-12-16T05:38:26.738Z,25.17
2022-12-16T05:41:08.538Z,20.92
2022-12-16T05:43:50.604Z,19.85
2022-12-16T05:46:33.796Z,23.83
2022-12-16T05:49:15.604Z,20.10
2022-12-16T05:51:57.436Z,22.25
2022-12-16T05:54:39.298Z,25.98
2022-12-16T05:57:20.825Z,23.15
2022-12-16T06:00:02.802Z,19.67
2022-12-16T06:02:55.344Z,23.65
2022-12-16T06:05:37.217Z,21.63
2022-12-16T06:08:19.587Z,25.20
2022-12-16T06:11:02.607Z,25.50
2022-12-16T06:13:44.684Z,22.10
2022-12-16T06:16:27.313Z,21.20
2022-12-16T06:19:10.563Z,24.88
2022-12-16T06:21:52.433Z,21.75
2022-12-16T06:24:34.560Z,21.80
2022-12-16T06:27:16.207Z,21.83
2022-12-16T06:29:58.036Z,18.70
2022-12-16T06:32:40.062Z,23.45
2022-12-16T06:35:23.922Z,18.27
2022-12-16T06:38:06.685Z,25.85
2022-12-16T06:40:48.723Z,23.90
2022-12-16T06:43:31.849Z,23.23
2022-12-16T06:46:14.200Z,23.33
2022-12-16T06:48:56.254Z,22.83
2022-12-16T06:51:39.783Z,23.40
2022-12-16T06:54:27.123Z,18.65
2022-12-16T06:57:09.235Z,23.02
2022-12-16T06:59:50.940Z,23.92
2022-12-16T07:02:32.739Z,23.65
2022-12-16T07:05:15.291Z,20.75
2022-12-16T07:07:58.223Z,23.42
2022-12-16T07:10:39.923Z,25.48
2022-12-16T07:13:22.301Z,25.55
2022-12-16T07:16:05.056Z,30.67
2022-12-16T07:18:47.228Z,31.15
2022-12-16T07:21:29.628Z,24.83
2022-12-16T07:24:12.528Z,25.73
2022-12-16T07:26:54.216Z,24.65
2022-12-16T07:29:36.446Z,26.02
2022-12-16T07:32:18.336Z,28.80
2022-12-16T07:35:00.438Z,25.58
2022-12-16T07:37:42.836Z,27.77
2022-12-16T07:40:29.309Z,28.48
2022-12-16T07:43:11.396Z,27.90
2022-12-16T07:45:53.468Z,28.70
2022-12-16T07:48:37.615Z,30.00
2022-12-16T07:51:19.744Z,31.50
2022-12-16T07:54:01.639Z,28.90
2022-12-16T07:56:45.277Z,24.00
2022-12-16T07:59:28.750Z,23.75
2022-12-16T08:02:10.844Z,25.67
2022-12-16T08:04:58.178Z,24.00
2022-12-16T08:07:40.796Z,24.10
2022-12-16T08:10:22.942Z,25.60
2022-12-16T08:13:06.786Z,20.52
2022-12-16T08:16:00.222Z,23.67
2022-12-16T08:18:42.412Z,25.27
2022-12-16T08:21:24.372Z,26.40
2022-12-16T08:24:06.434Z,26.23
2022-12-16T08:26:48.569Z,25.67
2022-12-16T08:29:44.393Z,25.73
2022-12-16T08:32:27.319Z,26.63
2022-12-16T08:35:08.984Z,24.63
2022-12-16T08:37:51.007Z,25.08
2022-12-16T08:40:35.826Z,26.70
2022-12-16T08:43:19.082Z,22.58
2022-12-16T08:46:02.513Z,23.33
2022-12-16T08:48:53.708Z,25.48
2022-12-16T08:51:36.076Z,26.17
2022-12-16T08:54:18.480Z,26.60
2022-12-16T08:57:01.274Z,23.95
2022-12-16T08:59:43.270Z,23.95
2022-12-16T09:02:28.147Z,24.00
2022-12-16T09:05:10.423Z,21.15
2022-12-16T09:07:52.799Z,23.85
2022-12-16T09:10:40.425Z,21.42
2022-12-16T09:13:28.129Z,22.70
2022-12-16T09:16:14.434Z,23.20
2022-12-16T09:19:01.399Z,21.27
2022-12-16T09:21:43.555Z,21.20
2022-12-16T09:24:26.020Z,23.15
2022-12-16T09:27:10.432Z,22.23
2022-12-16T09:29:52.219Z,25.52
2022-12-16T09:32:34.069Z,23.35
2022-12-16T09:35:17.304Z,24.23
2022-12-16T09:38:06.373Z,24.00
2022-12-16T09:40:48.471Z,23.95
2022-12-16T09:43:43.676Z,25.08
2022-12-16T09:46:33.945Z,25.40
2022-12-16T09:49:22.321Z,19.88
2022-12-16T09:52:06.752Z,19.85
2022-12-16T09:54:59.196Z,20.02
2022-12-16T09:57:45.276Z,17.73
2022-12-16T10:00:50.673Z,19.23
2022-12-16T10:03:40.195Z,19.90
2022-12-16T10:06:30.139Z,18.77
2022-12-16T10:09:21.082Z,20.27
2022-12-16T10:12:16.660Z,20.60
2022-12-16T10:15:08.532Z,21.40
2022-12-16T10:17:50.872Z,22.27
2022-12-16T10:20:38.688Z,22.25
2022-12-16T10:23:29.842Z,23.13
2022-12-16T10:26:21.440Z,22.20
2022-12-16T10:29:05.946Z,25.25
2022-12-16T10:31:48.558Z,23.33
2022-12-16T10:34:33.453Z,23.20
2022-12-16T10:37:20.617Z,22.80
2022-12-16T10:40:22.277Z,24.35
2022-12-16T10:43:10.504Z,22.35
2022-12-16T10:45:56.789Z,22.98
2022-12-16T10:48:55.021Z,21.35
2022-12-16T10:51:50.375Z,22.20
2022-12-16T10:54:48.402Z,24.35
2022-12-16T10:57:37.829Z,22.83
2022-12-16T11:00:33.541Z,23.95
2022-12-16T11:03:15.829Z,21.67
2022-12-16T11:05:58.221Z,23.73
2022-12-16T11:08:46.128Z,23.80
2022-12-16T11:11:33.898Z,24.90
2022-12-16T11:14:34.516Z,24.48
2022-12-16T11:17:50.669Z,23.08
2022-12-16T11:20:36.306Z,25.65
2022-12-16T11:23:35.478Z,26.75
2022-12-16T11:26:37.362Z,25.77
2022-12-16T11:29:33.510Z,26.33
2022-12-16T11:32:38.127Z,25.42
2022-12-16T11:35:23.464Z,25.17
2022-12-16T11:38:08.149Z,25.10
2022-12-16T11:40:52.583Z,25.80
2022-12-16T11:43:36.846Z,25.35
2022-12-16T11:46:24.052Z,23.98
2022-12-16T11:49:11.310Z,25.77
2022-12-16T11:52:08.055Z,23.55
2022-12-16T11:55:02.297Z,24.10
2022-12-16T11:57:54.836Z,23.52
2022-12-16T12:00:37.816Z,24.02
2022-12-16T12:03:25.541Z,25.58
2022-12-16T12:06:19.639Z,25.63
2022-12-16T12:09:12.284Z,25.65
2022-12-16T12:11:57.346Z,25.38
2022-12-16T12:14:53.881Z,26.08
2022-12-16T12:18:02.675Z,26.80
2022-12-16T12:21:02.036Z,26.67
2022-12-16T12:23:57.942Z,25.85
2022-12-16T12:26:48.297Z,27.75
2022-12-16T12:29:37.304Z,27.05
2022-12-16T12:32:26.434Z,26.88
2022-12-16T12:35:15.769Z,29.97
2022-12-16T12:38:10.122Z,30.23
2022-12-16T12:41:10.657Z,30.38
2022-12-16T12:46:47.671Z,31.38
2022-12-16T12:49:38.555Z,31.65
2022-12-16T12:52:30.137Z,34.22
2022-12-16T12:55:19.463Z,35.10
2022-12-16T12:58:05.593Z,31.77
2022-12-16T13:00:52.124Z,31.35
2022-12-16T13:03:44.031Z,28.38
2022-12-16T13:06:26.958Z,28.15
2022-12-16T13:09:16.943Z,30.98
2022-12-16T13:12:19.183Z,29.80
2022-12-16T13:15:22.469Z,31.25
2022-12-16T13:18:49.166Z,33.53
2022-12-16T13:22:02.863Z,32.13
2022-12-16T13:25:00.818Z,31.58
2022-12-16T13:27:44.604Z,31.10
2022-12-16T13:30:42.117Z,31.83
2022-12-16T13:33:27.355Z,34.83
2022-12-16T13:36:13.905Z,33.40
2022-12-16T13:39:03.185Z,36.30
2022-12-16T13:42:07.367Z,37.67
2022-12-16T13:45:17.191Z,37.33
2022-12-16T13:48:19.198Z,34.65
2022-12-16T13:51:19.078Z,35.53
2022-12-16T13:54:06.017Z,34.83
2022-12-16T13:56:53.408Z,33.53
2022-12-16T13:59:42.674Z,32.55
2022-12-16T14:02:46.196Z,33.45
2022-12-16T14:05:44.386Z,32.47
2022-12-16T14:08:34.541Z,33.30
2022-12-16T14:11:20.491Z,32.15
2022-12-16T14:14:11.361Z,32.15
2022-12-16T14:17:02.685Z,33.80
2022-12-16T14:19:52.786Z,35.10
2022-12-16T14:22:47.921Z,36.25
2022-12-16T14:25:35.596Z,34.28
2022-12-16T14:28:17.455Z,33.58
2022-12-16T14:31:00.087Z,37.20
2022-12-16T14:33:44.008Z,36.28
2022-12-16T14:36:38.908Z,37.15
2022-12-16T14:39:29.211Z,36.35
2022-12-16T14:42:11.740Z,37.05
2022-12-16T14:44:54.206Z,41.33
2022-12-16T14:47:41.561Z,40.28
2022-12-16T14:50:37.975Z,40.88
2022-12-16T14:53:32.681Z,42.13
2022-12-16T14:56:38.637Z,42.03
2022-12-16T14:59:38.761Z,42.20
2022-12-16T15:05:12.822Z,43.92
2022-12-16T15:07:57.178Z,43.65
2022-12-16T15:10:42.953Z,45.45
2022-12-16T15:13:33.550Z,43.38
2022-12-16T15:16:16.279Z,43.10
2022-12-16T15:19:02.238Z,44.90
2022-12-16T15:21:44.426Z,46.28
2022-12-16T15:24:27.978Z,43.63
2022-12-16T15:27:30.060Z,43.33
2022-12-16T15:30:13.807Z,42.88
2022-12-16T15:32:55.794Z,41.13
2022-12-16T15:35:49.322Z,38.85
2022-12-16T15:38:36.136Z,37.08
2022-12-16T15:41:19.250Z,37.55
2022-12-16T15:44:01.461Z,36.17
2022-12-16T15:46:48.634Z,36.70
2022-12-16T15:49:38.294Z,39.25
2022-12-16T15:52:20.557Z,36.38
2022-12-16T15:55:09.307Z,36.20
2022-12-16T15:57:53.453Z,39.88
2022-12-16T16:00:41.853Z,34.92
2022-12-16T16:03:37.545Z,39.15
2022-12-16T16:06:19.869Z,37.33
2022-12-16T16:09:01.685Z,39.35
2022-12-16T16:11:43.583Z,37.97
2022-12-16T16:14:25.982Z,38.92
2022-12-16T16:17:07.851Z,38.13
2022-12-16T16:19:51.641Z,39.85
2022-12-16T16:22:37.090Z,43.08
2022-12-16T16:25:19.468Z,43.53
2022-12-16T16:28:01.842Z,42.22
2022-12-16T16:30:43.925Z,44.95
2022-12-16T16:33:25.798Z,43.53
2022-12-16T16:36:08.862Z,44.53
2022-12-16T16:38:50.841Z,45.65
2022-12-16T16:41:35.413Z,43.70
2022-12-16T16:44:19.777Z,45.20
2022-12-16T16:47:02.809Z,42.78
2022-12-16T16:49:49.430Z,46.85
2022-12-16T16:52:35.030Z,48.67
2022-12-16T16:55:17.055Z,48.92
2022-12-16T16:57:58.723Z,45.80
2022-12-16T17:00:40.856Z,47.42
2022-12-16T17:03:23.337Z,43.47
2022-12-16T17:06:05.143Z,39.45
2022-12-16T17:08:48.930Z,40.40
2022-12-16T17:11:36.651Z,40.72
2022-12-16T17:14:30.223Z,36.90
2022-12-16T17:17:12.323Z,40.90
2022-12-16T17:19:54.911Z,40.22
2022-12-16T17:22:37.071Z,39.88
2022-12-16T17:25:20.196Z,40.85
2022-12-16T17:28:03.760Z,40.15
2022-12-16T17:30:47.924Z,38.92
2022-12-16T17:33:30.051Z,43.10
2022-12-16T17:36:12.106Z,43.05
2022-12-16T17:38:57.358Z,40.45
2022-12-16T17:41:41.609Z,39.10
2022-12-16T17:44:23.622Z,40.67
2022-12-16T17:47:06.196Z,38.63
2022-12-16T17:49:48.835Z,39.60
2022-12-16T17:52:30.979Z,42.05
2022-12-16T17:55:12.768Z,39.85
2022-12-16T17:57:55.701Z,39.83
2022-12-16T18:00:37.753Z,38.47
2022-12-16T18:03:19.978Z,42.70
2022-12-16T18:06:02.504Z,42.47
2022-12-16T18:08:50.252Z,45.75
2022-12-16T18:11:37.131Z,45.28
2022-12-16T18:14:22.243Z,47.15
2022-12-16T18:17:04.177Z,48.45
2022-12-16T18:19:46.028Z,50.42
2022-12-16T18:22:27.968Z,53.40
2022-12-16T18:25:10.306Z,53.65
2022-12-16T18:27:52.580Z,52.33
2022-12-16T18:30:36.281Z,48.28
2022-12-16T18:33:18.626Z,47.88
2022-12-16T18:36:01.099Z,45.63
2022-12-16T18:38:44.147Z,47.20
2022-12-16T18:41:33.366Z,56.25
2022-12-16T18:44:15.483Z,45.77
2022-12-16T18:46:59.163Z,48.78
2022-12-16T18:49:41.563Z,48.08
2022-12-16T18:52:23.622Z,48.03
2022-12-16T18:55:05.787Z,50.50
2022-12-16T18:57:47.840Z,53.17
2022-12-16T19:00:31.110Z,53.42
2022-12-16T19:03:14.543Z,48.60
2022-12-16T19:05:56.433Z,46.67
2022-12-16T19:08:38.717Z,48.08
2022-12-16T19:11:20.549Z,52.63
2022-12-16T19:14:02.621Z,51.40
2022-12-16T19:16:45.256Z,53.85
2022-12-16T19:19:28.523Z,55.15
2022-12-16T19:22:11.011Z,53.10
2022-12-16T19:24:58.331Z,59.22
2022-12-16T19:27:40.273Z,52.95
2022-12-16T19:30:21.574Z,51.55
2022-12-16T19:33:07.424Z,53.40
2022-12-16T19:35:53.676Z,51.67
2022-12-16T19:38:35.457Z,50.08
2022-12-16T19:41:17.390Z,50.10
2022-12-16T19:44:05.333Z,51.88
2022-12-16T19:46:48.514Z,50.55
2022-12-16T19:49:30.681Z,50.03
2022-12-16T19:52:25.637Z,51.03
2022-12-16T19:55:07.441Z,48.83
2022-12-16T19:57:50.085Z,56.58
2022-12-16T20:00:37.889Z,58.80
2022-12-16T20:03:20.258Z,67.80
2022-12-16T20:06:02.330Z,61.15
2022-12-16T20:08:47.134Z,51.70
2022-12-16T20:11:28.950Z,49.03
2022-12-16T20:14:12.242Z,48.75
2022-12-16T20:16:54.501Z,48.33
2022-12-16T20:19:38.646Z,48.88
2022-12-16T20:22:28.908Z,47.28
2022-12-16T20:25:12.331Z,48.28
2022-12-16T20:27:54.351Z,46.95
2022-12-16T20:30:39.151Z,47.80
2022-12-16T20:33:21.693Z,48.97
2022-12-16T20:36:14.120Z,49.03
2022-12-16T20:38:56.060Z,47.08
2022-12-16T20:41:39.725Z,47.20
2022-12-16T20:44:27.068Z,47.88
2022-12-16T20:47:08.740Z,47.92
2022-12-16T20:49:51.324Z,50.17
2022-12-16T20:52:33.985Z,46.83
2022-12-16T20:55:15.716Z,48.92
2022-12-16T20:57:58.821Z,51.50
2022-12-16T21:00:40.523Z,48.63
2022-12-16T21:03:26.206Z,49.10
2022-12-16T21:06:07.772Z,48.17
2022-12-16T21:08:50.126Z,51.20
2022-12-16T21:11:32.592Z,49.08
2022-12-16T21:14:16.144Z,46.10
2022-12-16T21:16:59.324Z,46.17
2022-12-16T21:19:38.334Z,44.72
2022-12-16T21:22:20.036Z,45.88
2022-12-16T21:25:02.280Z,44.08
2022-12-16T21:27:44.578Z,42.30
2022-12-16T21:30:29.403Z,44.35
2022-12-16T21:33:11.436Z,41.92
2022-12-16T21:35:53.003Z,41.42
2022-12-16T21:38:46.485Z,41.85
2022-12-16T21:41:28.449Z,39.22
2022-12-16T21:44:10.281Z,40.05
2022-12-16T21:47:05.228Z,40.28
2022-12-16T21:49:47.129Z,39.28
2022-12-16T21:52:28.740Z,37.42
2022-12-16T21:55:10.900Z,40.35
2022-12-16T21:57:53.356Z,38.35
2022-12-16T22:00:35.901Z,38.40
2022-12-16T22:03:19.522Z,38.13
2022-12-16T22:06:01.162Z,39.47
2022-12-16T22:08:43.305Z,37.63
2022-12-16T22:11:28.278Z,39.58
2022-12-16T22:14:09.793Z,38.70
2022-12-16T22:16:51.768Z,40.78
2022-12-16T22:19:34.994Z,41.45
2022-12-16T22:22:21.943Z,43.00
2022-12-16T22:25:04.878Z,40.85
2022-12-16T22:27:45.398Z,42.38
2022-12-16T22:30:28.401Z,45.80
2022-12-16T22:33:10.453Z,44.47
2022-12-16T22:35:54.260Z,47.75
2022-12-16T22:38:37.422Z,43.75
2022-12-16T22:41:20.156Z,46.42
2022-12-16T22:44:02.094Z,45.25
2022-12-16T22:46:44.249Z,43.92
2022-12-16T22:49:26.307Z,43.90
2022-12-16T22:52:09.598Z,44.22
2022-12-16T22:54:51.479Z,41.92
2022-12-16T22:57:35.166Z,43.30
2022-12-16T23:00:17.060Z,43.00
2022-12-16T23:02:59.241Z,41.85
2022-12-16T23:05:41.209Z,41.83
2022-12-16T23:08:25.054Z,41.65
2022-12-16T23:11:13.054Z,44.58
2022-12-16T23:14:03.288Z,39.42
2022-12-16T23:16:45.510Z,42.00
2022-12-16T23:19:27.405Z,39.92
2022-12-16T23:22:09.203Z,42.17
2022-12-16T23:24:53.349Z,41.85
2022-12-16T23:27:35.594Z,40.03
2022-12-16T23:30:17.619Z,38.38
2022-12-16T23:33:01.585Z,39.33
2022-12-16T23:35:43.729Z,40.33
2022-12-16T23:38:26.120Z,36.92
2022-12-16T23:41:14.428Z,37.20
2022-12-16T23:43:56.313Z,37.53
2022-12-16T23:46:38.438Z,38.50
2022-12-16T23:49:20.702Z,38.40
2022-12-16T23:52:02.497Z,38.70
2022-12-16T23:54:44.424Z,41.47
2022-12-16T23:57:27.470Z,40.47
